Time;durP1;ratioP1;P1;durP2;ratioP2;P2;SDS_P1;SDS_P2;PMS_P1;PMS_P2;Temp;Humidity;BMP_temperature;BMP_pressure;BME280_temperature;BME280_humidity;BME280_pressure;Samples;Min_cycle;Max_cycle;Signal;HPM_P1;HPM_P2
2022/10/28 00:01:14;;;;;;;15.57;9.07;;;15.10;99.90;;;;;;5032346;28;20752;-78
2022/10/28 00:03:42;;;;;;;23.60;10.70;;;15.10;99.90;;;;;;5027971;28;20684;-77
2022/10/28 00:06:12;;;;;;;11.52;8.23;;;15.10;99.90;;;;;;5032537;28;20214;-78
2022/10/28 00:08:39;;;;;;;17.58;10.35;;;15.10;99.90;;;;;;5024122;28;20308;-78
2022/10/28 00:11:09;;;;;;;11.95;8.85;;;15.10;99.90;;;;;;5033618;28;20205;-78
2022/10/28 00:13:37;;;;;;;15.98;10.18;;;15.10;99.90;;;;;;5032195;28;20234;-77
2022/10/28 00:16:09;;;;;;;12.48;8.05;;;15.20;99.90;;;;;;5043289;28;20189;-77
2022/10/28 00:18:36;;;;;;;9.33;8.03;;;15.10;99.90;;;;;;5048605;28;20259;-75
2022/10/28 00:21:05;;;;;;;10.27;8.70;;;15.20;99.90;;;;;;5035199;28;20507;-77
2022/10/28 00:23:34;;;;;;;15.65;8.02;;;15.10;99.90;;;;;;5019057;28;20684;-79
2022/10/28 00:26:08;;;;;;;10.93;9.15;;;15.10;99.90;;;;;;5048822;28;20248;-74
2022/10/28 00:28:35;;;;;;;11.23;9.00;;;15.00;99.90;;;;;;5033848;28;20308;-74
2022/10/28 00:31:07;;;;;;;15.43;9.05;;;15.10;99.90;;;;;;5019107;28;20212;-77
2022/10/28 00:33:34;;;;;;;10.10;9.10;;;15.10;99.90;;;;;;5020450;28;20206;-77
2022/10/28 00:36:14;;;;;;;8.05;7.25;;;15.20;99.90;;;;;;5023232;28;20293;-77
2022/10/28 00:38:43;;;;;;;9.70;8.15;;;15.20;99.90;;;;;;5031913;28;20755;-78
2022/10/28 00:41:12;;;;;;;17.27;9.20;;;15.30;99.90;;;;;;5027452;28;20287;-78
2022/10/28 00:43:41;;;;;;;14.88;8.88;;;15.40;99.90;;;;;;5020361;28;20457;-78
2022/10/28 00:46:18;;;;;;;8.50;7.73;;;15.40;99.90;;;;;;5022121;28;20250;-76
2022/10/28 00:48:47;;;;;;;8.87;7.30;;;15.40;99.90;;;;;;5023926;28;20850;-75
2022/10/28 00:51:16;;;;;;;9.48;7.30;;;15.40;99.90;;;;;;5033273;28;20473;-77
2022/10/28 00:53:47;;;;;;;18.85;8.68;;;15.50;99.90;;;;;;5034014;28;20288;-77
2022/10/28 00:56:16;;;;;;;8.93;8.03;;;15.50;99.90;;;;;;5026497;28;20200;-76
2022/10/28 00:58:44;;;;;;;11.63;7.38;;;15.50;99.90;;;;;;5023810;28;20549;-76
2022/10/28 01:01:11;;;;;;;12.70;7.82;;;15.50;99.90;;;;;;5022509;28;20205;-76
2022/10/28 01:03:38;;;;;;;15.80;8.47;;;15.50;99.90;;;;;;5025575;28;20197;-76
2022/10/28 01:06:06;;;;;;;10.48;8.20;;;15.50;99.90;;;;;;5028609;28;20536;-77
2022/10/28 01:08:33;;;;;;;13.07;7.40;;;15.40;99.90;;;;;;5023683;28;20309;-75
2022/10/28 01:11:14;;;;;;;11.63;7.85;;;15.40;99.90;;;;;;5026503;28;20303;-78
2022/10/28 01:13:50;;;;;;;17.67;8.43;;;15.40;99.90;;;;;;5021091;28;20563;-78
2022/10/28 01:16:26;;;;;;;13.63;8.43;;;15.50;99.90;;;;;;5018775;28;20206;-77
2022/10/28 01:19:06;;;;;;;10.45;8.48;;;15.50;99.90;;;;;;5024565;28;20572;-75
2022/10/28 01:21:56;;;;;;;12.47;6.87;;;15.50;99.90;;;;;;5004510;28;20666;-74
2022/10/28 01:24:38;;;;;;;8.57;7.60;;;15.60;99.90;;;;;;5023238;28;21020;-78
2022/10/28 01:27:31;;;;;;;11.82;7.88;;;15.60;99.90;;;;;;5015360;28;20521;-77
2022/10/28 01:30:10;;;;;;;15.70;7.23;;;15.60;99.90;;;;;;5009284;28;20199;-77
2022/10/28 01:32:50;;;;;;;8.07;7.27;;;15.60;99.90;;;;;;5003828;28;20509;-73
2022/10/28 01:35:24;;;;;;;7.38;6.43;;;15.60;99.90;;;;;;5019393;28;20477;-79
2022/10/28 01:38:08;;;;;;;10.43;7.07;;;15.50;99.90;;;;;;5018435;28;20223;-77
2022/10/28 01:40:43;;;;;;;13.13;8.45;;;15.50;99.90;;;;;;4998729;28;20481;-77
2022/10/28 01:43:15;;;;;;;12.45;8.05;;;15.40;99.90;;;;;;5031812;28;20206;-78
2022/10/28 01:46:00;;;;;;;13.88;7.35;;;15.40;99.90;;;;;;5041828;28;20218;-75
2022/10/28 01:48:37;;;;;;;11.23;7.32;;;15.40;99.90;;;;;;5031699;28;20225;-75
2022/10/28 01:51:08;;;;;;;9.88;7.30;;;15.40;99.90;;;;;;5011674;28;20301;-78
2022/10/28 01:53:40;;;;;;;14.02;7.35;;;15.40;99.90;;;;;;5025231;28;20291;-75
2022/10/28 01:56:11;;;;;;;10.02;6.78;;;15.40;99.90;;;;;;5024114;28;20288;-76
2022/10/28 01:58:39;;;;;;;10.98;6.97;;;15.50;99.90;;;;;;5032418;28;20230;-77
2022/10/28 02:01:09;;;;;;;12.83;7.63;;;15.50;99.90;;;;;;5020113;28;20282;-74
2022/10/28 02:03:37;;;;;;;10.10;6.63;;;15.50;99.90;;;;;;5029519;28;21537;-77
2022/10/28 02:06:12;;;;;;;12.90;7.83;;;15.60;99.90;;;;;;5017778;28;20262;-73
2022/10/28 02:09:06;;;;;;;7.45;6.32;;;15.50;99.90;;;;;;5024459;28;20504;-77
2022/10/28 02:11:51;;;;;;;10.03;8.43;;;15.40;99.90;;;;;;5018534;28;20277;-78
2022/10/28 02:14:33;;;;;;;7.77;6.60;;;15.40;99.90;;;;;;5025470;28;20479;-74
2022/10/28 02:17:07;;;;;;;10.53;7.30;;;15.40;99.90;;;;;;5029046;28;20456;-76
2022/10/28 02:19:43;;;;;;;9.45;6.80;;;15.40;99.90;;;;;;5015541;28;20481;-75
2022/10/28 02:22:19;;;;;;;8.70;7.17;;;15.30;99.90;;;;;;5016444;28;20199;-78
2022/10/28 02:24:54;;;;;;;17.10;9.43;;;15.30;99.90;;;;;;5015978;28;20466;-75
2022/10/28 02:27:31;;;;;;;10.95;8.55;;;15.30;99.90;;;;;;5013270;28;20245;-76
2022/10/28 02:30:03;;;;;;;7.40;6.65;;;15.20;99.90;;;;;;5023733;28;20285;-74
2022/10/28 02:32:33;;;;;;;11.23;6.40;;;15.30;99.90;;;;;;5017654;28;20249;-76
2022/10/28 02:35:03;;;;;;;7.93;7.05;;;15.30;99.90;;;;;;5024350;28;20432;-75
2022/10/28 02:37:34;;;;;;;9.50;7.67;;;15.30;99.90;;;;;;5016817;28;20234;-77
2022/10/28 02:40:06;;;;;;;16.20;7.83;;;15.40;99.90;;;;;;5016674;28;20536;-77
2022/10/28 02:42:37;;;;;;;10.50;7.50;;;15.30;99.90;;;;;;5017056;28;20550;-75
2022/10/28 02:45:10;;;;;;;11.23;8.23;;;15.40;99.90;;;;;;5018101;28;20447;-75
2022/10/28 02:47:42;;;;;;;10.43;6.43;;;15.40;99.90;;;;;;5020952;28;20494;-75
2022/10/28 02:50:16;;;;;;;7.70;6.43;;;15.40;99.90;;;;;;5030999;28;20537;-74
2022/10/28 02:52:51;;;;;;;9.73;7.10;;;15.40;99.90;;;;;;5028807;28;20484;-73
2022/10/28 02:55:22;;;;;;;9.77;6.77;;;15.50;99.90;;;;;;5045845;28;20449;-76
2022/10/28 02:57:49;;;;;;;10.10;7.40;;;15.40;99.90;;;;;;5031354;28;20462;-76
2022/10/28 03:00:19;;;;;;;13.35;7.72;;;15.50;99.90;;;;;;5025192;28;20468;-77
2022/10/28 03:02:46;;;;;;;8.48;6.25;;;15.50;99.90;;;;;;5036519;28;20229;-74
2022/10/28 03:05:14;;;;;;;14.20;6.87;;;15.50;99.90;;;;;;5032539;28;20203;-77
2022/10/28 03:07:41;;;;;;;7.73;6.97;;;15.50;99.90;;;;;;5041747;28;20511;-75
2022/10/28 03:10:10;;;;;;;13.57;6.57;;;15.50;99.90;;;;;;5041363;28;20515;-78
2022/10/28 03:12:36;;;;;;;13.27;7.13;;;15.40;99.90;;;;;;5046580;28;20471;-75
2022/10/28 03:15:04;;;;;;;9.53;6.87;;;15.40;99.90;;;;;;5041323;28;20438;-75
2022/10/28 03:17:31;;;;;;;9.95;6.13;;;15.50;99.90;;;;;;5050043;28;20468;-76
2022/10/28 03:20:52;;;;;;;11.88;7.22;;;15.50;99.90;;;;;;5038466;28;20704;-75
2022/10/28 03:23:21;;;;;;;12.33;8.03;;;15.50;99.90;;;;;;5026085;28;20665;-73
2022/10/28 03:25:48;;;;;;;12.05;8.13;;;15.50;99.90;;;;;;5030146;28;20482;-74
2022/10/28 03:28:14;;;;;;;12.23;7.95;;;15.50;99.90;;;;;;5039269;28;20294;-76
2022/10/28 03:30:42;;;;;;;11.70;6.87;;;15.40;99.90;;;;;;5022353;28;20234;-75
2022/10/28 03:33:09;;;;;;;11.27;7.60;;;15.50;99.90;;;;;;5033549;28;20449;-75
2022/10/28 03:35:36;;;;;;;10.30;7.80;;;15.50;99.90;;;;;;5026695;28;21376;-76
2022/10/28 03:38:04;;;;;;;10.83;7.63;;;15.40;99.90;;;;;;5028548;28;20502;-77
2022/10/28 03:40:33;;;;;;;12.27;7.80;;;15.50;99.90;;;;;;5035153;28;20541;-76
2022/10/28 03:42:59;;;;;;;14.50;8.87;;;15.50;99.90;;;;;;5026480;28;20452;-76
2022/10/28 03:45:27;;;;;;;16.87;10.13;;;15.50;99.90;;;;;;5035856;28;20968;-75
2022/10/28 03:47:53;;;;;;;13.93;7.43;;;15.40;99.90;;;;;;5028222;28;20908;-76
2022/10/28 03:50:20;;;;;;;13.40;8.13;;;15.40;99.90;;;;;;5031505;28;20206;-75
2022/10/28 03:52:47;;;;;;;11.53;8.27;;;15.40;99.90;;;;;;5025075;28;20234;-74
2022/10/28 03:55:15;;;;;;;11.13;7.87;;;15.40;99.90;;;;;;5035607;28;20466;-78
2022/10/28 03:57:43;;;;;;;17.80;9.73;;;15.40;99.90;;;;;;5033887;28;20469;-74
2022/10/28 04:00:11;;;;;;;12.07;7.78;;;15.50;99.90;;;;;;5033958;28;20469;-74
2022/10/28 04:02:37;;;;;;;20.35;15.15;;;15.50;99.90;;;;;;5044231;28;20203;-74
2022/10/28 04:05:05;;;;;;;12.83;8.63;;;15.60;99.90;;;;;;5034476;28;20286;-77
2022/10/28 04:07:32;;;;;;;15.30;8.87;;;15.60;99.90;;;;;;5020531;28;20498;-75
2022/10/28 04:09:59;;;;;;;9.20;7.87;;;15.60;99.90;;;;;;5027933;28;21010;-77
2022/10/28 04:12:26;;;;;;;10.63;7.53;;;15.60;99.90;;;;;;5027510;28;20541;-75
2022/10/28 04:14:54;;;;;;;12.03;9.17;;;15.60;99.90;;;;;;5020562;28;20943;-79
2022/10/28 04:17:21;;;;;;;12.90;8.30;;;15.60;99.90;;;;;;5024443;28;20941;-79
2022/10/28 04:19:48;;;;;;;12.00;8.63;;;15.60;99.90;;;;;;5027085;28;20990;-76
2022/10/28 04:22:15;;;;;;;11.10;7.80;;;15.60;99.90;;;;;;5032411;28;20957;-79
2022/10/28 04:24:42;;;;;;;11.67;7.80;;;15.50;99.90;;;;;;5036936;28;20506;-76
2022/10/28 04:27:09;;;;;;;12.00;8.47;;;15.60;99.90;;;;;;5031913;28;20518;-73
2022/10/28 04:29:37;;;;;;;10.57;8.50;;;15.50;99.90;;;;;;5028469;28;21060;-76
2022/10/28 04:32:05;;;;;;;10.40;7.80;;;15.50;99.90;;;;;;5034879;28;20464;-76
2022/10/28 04:34:33;;;;;;;11.87;7.50;;;15.50;99.90;;;;;;5034857;28;20473;-76
2022/10/28 04:37:00;;;;;;;15.50;9.40;;;15.50;99.90;;;;;;5033802;28;20456;-76
2022/10/28 04:39:27;;;;;;;12.75;6.85;;;15.50;99.90;;;;;;5033241;28;20465;-78
2022/10/28 04:41:54;;;;;;;15.63;8.27;;;15.50;99.90;;;;;;5034574;28;20202;-76
2022/10/28 04:44:21;;;;;;;12.02;9.50;;;15.50;99.90;;;;;;5033962;28;20207;-75
2022/10/28 04:46:48;;;;;;;13.23;8.50;;;15.40;99.90;;;;;;5033587;28;20630;-74
2022/10/28 04:49:16;;;;;;;16.15;8.73;;;15.30;99.90;;;;;;5033398;28;20229;-77
2022/10/28 04:51:43;;;;;;;11.70;9.40;;;15.30;99.90;;;;;;5025687;28;20259;-75
2022/10/28 04:54:10;;;;;;;9.93;7.40;;;15.30;99.90;;;;;;5028078;28;20458;-76
2022/10/28 04:56:37;;;;;;;14.43;10.40;;;15.30;99.90;;;;;;5028609;28;20629;-75
2022/10/28 04:59:04;;;;;;;9.80;6.40;;;15.30;99.90;;;;;;5024206;28;20900;-78
2022/10/28 05:01:32;;;;;;;12.88;8.70;;;15.40;99.90;;;;;;5028310;28;20869;-79
2022/10/28 05:03:59;;;;;;;15.38;8.45;;;15.30;99.90;;;;;;5021164;28;20222;-74
2022/10/28 05:06:27;;;;;;;11.02;7.75;;;15.30;99.90;;;;;;5029355;28;20207;-76
2022/10/28 05:08:54;;;;;;;13.25;8.80;;;15.20;99.90;;;;;;5022475;28;20213;-76
2022/10/28 05:11:21;;;;;;;12.43;8.48;;;15.20;99.90;;;;;;5016328;28;20215;-78
2022/10/28 05:13:48;;;;;;;12.52;8.20;;;15.10;99.90;;;;;;5017733;28;20197;-77
2022/10/28 05:16:15;;;;;;;7.88;7.05;;;15.10;99.90;;;;;;5025157;28;20230;-78
2022/10/28 05:18:42;;;;;;;12.60;8.13;;;15.10;99.90;;;;;;5021800;28;20269;-76
2022/10/28 05:21:09;;;;;;;12.07;6.33;;;15.10;99.90;;;;;;5033751;28;20476;-77
2022/10/28 05:23:37;;;;;;;17.75;9.18;;;15.10;99.90;;;;;;5039350;28;20469;-75
2022/10/28 05:26:05;;;;;;;11.43;9.40;;;15.00;99.90;;;;;;5033589;28;20202;-78
2022/10/28 05:28:31;;;;;;;11.67;8.13;;;15.10;99.90;;;;;;5026897;28;20242;-74
2022/10/28 05:30:58;;;;;;;10.80;7.78;;;15.00;99.90;;;;;;5022697;28;20449;-73
2022/10/28 05:33:25;;;;;;;13.48;9.30;;;15.00;99.90;;;;;;5026897;28;20278;-71
2022/10/28 05:35:52;;;;;;;13.38;9.60;;;15.00;99.90;;;;;;5023555;28;20645;-73
2022/10/28 05:38:19;;;;;;;11.43;8.25;;;14.90;99.90;;;;;;5026969;28;20222;-76
2022/10/28 05:40:48;;;;;;;12.07;7.93;;;14.90;99.90;;;;;;5017770;28;20238;-75
2022/10/28 05:43:15;;;;;;;13.82;9.32;;;14.90;99.90;;;;;;5030224;28;20231;-72
2022/10/28 05:45:41;;;;;;;12.50;8.60;;;14.90;99.90;;;;;;5036401;28;20198;-73
2022/10/28 05:48:08;;;;;;;9.85;7.75;;;14.80;99.90;;;;;;5035821;28;20246;-75
2022/10/28 05:50:36;;;;;;;16.38;8.40;;;14.70;99.90;;;;;;5023551;28;20282;-76
2022/10/28 05:53:03;;;;;;;12.77;9.10;;;14.70;99.90;;;;;;5025543;28;20288;-77
2022/10/28 05:55:30;;;;;;;12.57;9.25;;;14.70;99.90;;;;;;5026333;28;20208;-74
2022/10/28 05:57:59;;;;;;;14.18;7.43;;;14.60;99.90;;;;;;5028542;28;20212;-79
2022/10/28 06:00:26;;;;;;;14.43;9.23;;;14.60;99.90;;;;;;5032522;28;20211;-77
2022/10/28 06:03:08;;;;;;;15.77;9.18;;;14.70;99.90;;;;;;5026262;28;20201;-78
2022/10/28 06:05:35;;;;;;;15.88;11.02;;;14.70;99.90;;;;;;5022210;28;20238;-77
2022/10/28 06:08:04;;;;;;;13.48;9.32;;;14.60;99.90;;;;;;5033481;28;20232;-77
2022/10/28 06:10:31;;;;;;;12.60;9.45;;;14.50;99.90;;;;;;5027172;28;20205;-80
2022/10/28 06:13:04;;;;;;;12.48;8.40;;;14.50;99.90;;;;;;5022388;28;20225;-75
2022/10/28 06:15:34;;;;;;;16.13;9.63;;;14.50;99.90;;;;;;5023705;28;20202;-76
2022/10/28 06:18:01;;;;;;;19.27;11.77;;;14.50;99.90;;;;;;5025846;28;20263;-78
2022/10/28 06:20:28;;;;;;;17.55;10.82;;;14.50;99.90;;;;;;5028181;28;20255;-75
2022/10/28 06:22:56;;;;;;;12.73;8.70;;;14.40;99.90;;;;;;5030770;28;20263;-73
2022/10/28 06:25:25;;;;;;;13.57;9.73;;;14.50;99.90;;;;;;5034822;28;20212;-76
2022/10/28 06:27:56;;;;;;;10.75;8.55;;;14.50;99.90;;;;;;5029594;28;20541;-79
2022/10/28 06:30:25;;;;;;;16.73;9.90;;;14.50;99.90;;;;;;5037550;28;20260;-77
2022/10/28 06:32:52;;;;;;;17.88;9.90;;;14.60;99.90;;;;;;5027829;28;20206;-75
2022/10/28 06:35:20;;;;;;;16.00;11.02;;;14.70;99.90;;;;;;5022465;28;20217;-77
2022/10/28 06:37:47;;;;;;;14.80;10.82;;;14.60;99.90;;;;;;5022350;28;20654;-77
2022/10/28 06:40:14;;;;;;;13.63;10.40;;;14.70;99.90;;;;;;5019380;28;20736;-76
2022/10/28 06:42:41;;;;;;;12.45;8.60;;;14.80;99.90;;;;;;5027055;28;20477;-76
2022/10/28 06:45:09;;;;;;;11.98;7.63;;;14.90;99.90;;;;;;5021005;28;20208;-79
2022/10/28 06:47:37;;;;;;;16.00;9.32;;;14.90;99.90;;;;;;5023065;28;20242;-78
2022/10/28 06:50:04;;;;;;;13.05;7.93;;;15.00;99.90;;;;;;5037566;28;20624;-78
2022/10/28 06:52:31;;;;;;;10.27;7.67;;;15.20;99.90;;;;;;5029225;28;20218;-76
2022/10/28 06:54:58;;;;;;;11.82;6.55;;;15.30;99.90;;;;;;5026604;28;20486;-77
2022/10/28 06:57:25;;;;;;;11.60;6.63;;;15.70;99.90;;;;;;5027153;28;20230;-74
2022/10/28 06:59:52;;;;;;;9.50;6.40;;;16.00;99.90;;;;;;5027549;28;20539;-77
2022/10/28 07:02:19;;;;;;;11.60;7.03;;;16.30;99.90;;;;;;5040010;28;20554;-76
2022/10/28 07:04:47;;;;;;;13.60;7.43;;;16.80;99.90;;;;;;5026284;28;20519;-74
2022/10/28 07:07:14;;;;;;;10.70;7.30;;;17.20;99.90;;;;;;5029902;28;20456;-74
2022/10/28 07:09:43;;;;;;;11.77;7.50;;;17.20;99.90;;;;;;5017580;28;20471;-75
2022/10/28 07:12:13;;;;;;;9.70;7.30;;;17.10;99.90;;;;;;5025190;28;20878;-78
2022/10/28 07:14:40;;;;;;;10.17;6.80;;;17.10;99.90;;;;;;5025730;28;20511;-73
2022/10/28 07:17:08;;;;;;;10.97;7.10;;;17.10;99.90;;;;;;5024193;28;21011;-77
2022/10/28 07:19:35;;;;;;;10.50;6.03;;;17.10;99.90;;;;;;5023133;28;20874;-75
2022/10/28 07:22:03;;;;;;;12.90;7.67;;;17.30;99.90;;;;;;5019721;28;20480;-76
2022/10/28 07:24:30;;;;;;;14.50;8.50;;;17.50;99.90;;;;;;5022915;28;20887;-76
2022/10/28 07:26:58;;;;;;;10.40;6.80;;;17.70;99.90;;;;;;5030084;28;20490;-77
2022/10/28 07:29:25;;;;;;;11.00;6.87;;;18.30;99.90;;;;;;5033073;28;20491;-77
2022/10/28 07:32:14;;;;;;;12.60;5.40;;;18.90;99.90;;;;;;5042396;28;20550;-76
2022/10/28 07:34:41;;;;;;;6.53;4.83;;;19.40;99.90;;;;;;5033108;28;20847;-77
2022/10/28 07:37:09;;;;;;;14.60;6.33;;;19.80;99.90;;;;;;5034189;28;20524;-76
2022/10/28 07:39:37;;;;;;;10.93;6.73;;;20.40;99.90;;;;;;5033879;28;20468;-76
2022/10/28 07:42:04;;;;;;;10.77;6.57;;;21.10;99.90;;;;;;5033101;28;20872;-72
2022/10/28 07:44:31;;;;;;;9.17;6.17;;;21.60;99.90;;;;;;5025464;28;20526;-75
2022/10/28 07:46:59;;;;;;;11.37;6.10;;;21.80;99.90;;;;;;5029055;28;20868;-78
2022/10/28 07:49:26;;;;;;;8.97;5.83;;;22.70;99.90;;;;;;5025708;28;20575;-76
2022/10/28 07:51:53;;;;;;;8.63;6.00;;;23.20;99.90;;;;;;5028560;28;20954;-76
2022/10/28 07:54:22;;;;;;;6.70;5.73;;;23.50;99.90;;;;;;5032132;28;20451;-77
2022/10/28 07:56:48;;;;;;;9.40;5.50;;;23.30;99.90;;;;;;5022313;28;20920;-75
2022/10/28 07:59:19;;;;;;;10.63;5.73;;;23.10;99.90;;;;;;5021872;28;20550;-75
2022/10/28 08:01:46;;;;;;;12.80;5.43;;;23.00;99.90;;;;;;5025163;28;20926;-74
2022/10/28 08:04:13;;;;;;;11.93;6.87;;;23.10;99.90;;;;;;5020596;28;20448;-77
2022/10/28 08:06:41;;;;;;;11.83;6.07;;;23.10;99.90;;;;;;5023093;28;20444;-77
2022/10/28 08:09:10;;;;;;;13.40;5.63;;;23.10;99.90;;;;;;5021058;28;20483;-77
2022/10/28 08:11:38;;;;;;;16.03;8.63;;;23.60;99.90;;;;;;5021983;28;20501;-75
2022/10/28 08:14:08;;;;;;;19.30;7.40;;;23.90;99.90;;;;;;5026769;28;20934;-72
2022/10/28 08:16:35;;;;;;;13.67;6.73;;;24.70;99.90;;;;;;5032849;28;20482;-73
2022/10/28 08:19:02;;;;;;;13.07;5.83;;;25.00;98.10;;;;;;5024743;28;20528;-77
2022/10/28 08:21:29;;;;;;;8.73;5.67;;;25.30;97.20;;;;;;5028034;28;20463;-71
2022/10/28 08:23:57;;;;;;;9.83;5.97;;;26.00;96.10;;;;;;5032508;28;20447;-72
2022/10/28 08:26:25;;;;;;;8.43;5.73;;;26.30;94.90;;;;;;5029602;28;20470;-71
2022/10/28 08:28:53;;;;;;;10.23;6.27;;;26.60;94.50;;;;;;5027942;28;20498;-71
2022/10/28 08:31:20;;;;;;;9.63;5.40;;;27.10;93.40;;;;;;5025863;28;20470;-73
2022/10/28 08:33:47;;;;;;;12.03;6.70;;;27.30;92.50;;;;;;5020158;28;20448;-76
2022/10/28 08:36:16;;;;;;;14.43;6.20;;;27.00;92.60;;;;;;5022961;28;20542;-74
2022/10/28 08:38:44;;;;;;;9.87;4.40;;;27.50;92.20;;;;;;5028801;28;20463;-74
2022/10/28 08:41:28;;;;;;;7.60;4.70;;;27.80;91.70;;;;;;5020633;28;20446;-74
2022/10/28 08:44:09;;;;;;;9.10;4.87;;;27.60;91.50;;;;;;5019518;28;20505;-74
2022/10/28 08:46:52;;;;;;;7.40;5.03;;;27.80;91.20;;;;;;5013077;28;20490;-72
2022/10/28 08:49:22;;;;;;;9.00;5.43;;;27.80;91.10;;;;;;5008764;28;20577;-71
2022/10/28 08:51:56;;;;;;;13.03;6.67;;;27.90;91.10;;;;;;5023022;28;20474;-73
2022/10/28 08:54:31;;;;;;;9.00;5.43;;;28.10;90.40;;;;;;5024806;28;20986;-71
2022/10/28 08:57:01;;;;;;;11.37;5.63;;;27.80;90.20;;;;;;5006179;28;20475;-73
2022/10/28 08:59:32;;;;;;;12.97;5.87;;;27.50;90.90;;;;;;5032447;28;20544;-72
2022/10/28 09:02:02;;;;;;;8.70;6.10;;;27.80;90.80;;;;;;5020018;28;20440;-74
2022/10/28 09:04:38;;;;;;;9.63;5.60;;;27.40;91.00;;;;;;5026508;28;20527;-79
2022/10/28 09:07:06;;;;;;;11.70;5.60;;;27.90;90.80;;;;;;5008446;28;20446;-79
2022/10/28 09:09:39;;;;;;;8.87;5.67;;;28.20;90.40;;;;;;5034586;28;20562;-77
2022/10/28 09:12:18;;;;;;;10.03;4.53;;;28.40;89.90;;;;;;5031636;28;20439;-77
2022/10/28 09:15:01;;;;;;;7.80;5.20;;;28.80;88.70;;;;;;5027980;28;20868;-78
2022/10/28 09:17:47;;;;;;;14.40;6.23;;;28.60;88.70;;;;;;5027717;28;20447;-76
2022/10/28 09:20:19;;;;;;;10.80;4.90;;;28.70;89.00;;;;;;5022817;28;20475;-80
2022/10/28 09:23:09;;;;;;;12.40;4.90;;;29.20;89.00;;;;;;5031341;28;20519;-79
2022/10/28 09:25:47;;;;;;;13.33;4.70;;;29.30;88.50;;;;;;5031610;28;20808;-80
2022/10/28 09:28:45;;;;;;;9.70;5.63;;;29.20;88.00;;;;;;5003748;28;21064;-75
2022/10/28 09:31:21;;;;;;;9.67;4.47;;;29.50;88.00;;;;;;5034705;28;20467;-77
2022/10/28 09:34:27;;;;;;;10.00;4.37;;;29.50;87.10;;;;;;5026438;28;20544;-76
2022/10/28 09:36:58;;;;;;;9.53;5.13;;;29.40;87.60;;;;;;5035134;28;20478;-80
2022/10/28 09:39:29;;;;;;;10.20;5.27;;;29.50;86.10;;;;;;5040121;28;20481;-77
2022/10/28 09:41:59;;;;;;;12.43;4.50;;;29.40;86.50;;;;;;5031694;28;20519;-74
2022/10/28 09:44:38;;;;;;;7.90;5.27;;;29.50;87.00;;;;;;5033216;28;20528;-79
2022/10/28 09:47:17;;;;;;;17.13;4.60;;;29.50;87.20;;;;;;5034266;28;20844;-79
2022/10/28 09:49:46;;;;;;;8.97;4.60;;;28.90;88.00;;;;;;5005876;28;20501;-78
2022/10/28 09:52:18;;;;;;;11.23;4.50;;;28.60;88.40;;;;;;5028640;28;20512;-76
2022/10/28 09:54:50;;;;;;;8.13;3.70;;;28.40;88.70;;;;;;5028694;28;20431;-80
2022/10/28 09:57:17;;;;;;;13.90;4.60;;;28.10;89.90;;;;;;5028274;28;20942;-78
2022/10/28 09:59:44;;;;;;;11.37;4.80;;;27.30;90.40;;;;;;5033079;28;20458;-80
2022/10/28 10:02:26;;;;;;;7.87;4.70;;;27.10;91.50;;;;;;5028647;28;20961;-77
2022/10/28 10:04:53;;;;;;;25.13;6.30;;;27.20;91.20;;;;;;5021447;28;20449;-76
2022/10/28 10:07:30;;;;;;;12.07;5.80;;;26.60;91.40;;;;;;5027254;28;20535;-78
2022/10/28 10:09:59;;;;;;;13.60;5.37;;;26.70;91.80;;;;;;5023359;28;20507;-79
2022/10/28 10:12:28;;;;;;;14.30;5.30;;;26.50;91.90;;;;;;5022319;28;22020;-77
2022/10/28 10:14:58;;;;;;;9.50;4.90;;;26.70;92.00;;;;;;5028399;28;20533;-77
2022/10/28 10:17:32;;;;;;;14.57;4.93;;;26.70;92.30;;;;;;5038880;28;20439;-75
2022/10/28 10:20:06;;;;;;;10.70;5.00;;;26.90;91.90;;;;;;5029868;28;20427;-76
2022/10/28 10:22:35;;;;;;;15.10;4.87;;;27.10;91.80;;;;;;5011253;28;21016;-76
2022/10/28 10:25:02;;;;;;;10.43;5.37;;;26.60;91.50;;;;;;5020543;28;20526;-75
2022/10/28 10:27:31;;;;;;;11.93;5.77;;;26.00;92.40;;;;;;5026115;28;20450;-77
2022/10/28 10:29:59;;;;;;;7.57;4.50;;;25.80;93.10;;;;;;5027324;28;20834;-75
2022/10/28 10:32:30;;;;;;;16.60;4.67;;;25.70;93.10;;;;;;5026592;28;20447;-78
2022/10/28 10:35:05;;;;;;;11.43;4.73;;;25.40;93.50;;;;;;5024029;28;20446;-76
2022/10/28 10:37:35;;;;;;;10.47;4.63;;;25.10;94.00;;;;;;5032485;28;20497;-74
2022/10/28 10:40:19;;;;;;;13.97;4.80;;;24.50;94.80;;;;;;5026883;28;20478;-77
2022/10/28 10:42:46;;;;;;;12.63;5.20;;;24.20;96.40;;;;;;5025078;28;20542;-75
2022/10/28 10:45:23;;;;;;;12.47;4.60;;;23.80;97.20;;;;;;5027426;28;20521;-76
2022/10/28 10:48:13;;;;;;;15.47;4.13;;;23.50;98.30;;;;;;5032168;28;20476;-76
2022/10/28 10:50:40;;;;;;;8.23;3.93;;;23.40;99.40;;;;;;5026622;28;20477;-76
2022/10/28 10:53:20;;;;;;;12.37;4.97;;;23.40;99.80;;;;;;5027777;28;20491;-78
2022/10/28 10:55:51;;;;;;;10.43;4.20;;;23.50;99.70;;;;;;5036733;28;20523;-75
2022/10/28 10:58:21;;;;;;;10.37;5.77;;;23.60;99.30;;;;;;5034450;28;20470;-75
2022/10/28 11:00:57;;;;;;;12.03;5.50;;;23.80;99.30;;;;;;5023185;28;20444;-75
2022/10/28 11:03:30;;;;;;;17.40;6.70;;;23.90;99.20;;;;;;5026632;28;20506;-77
2022/10/28 11:05:59;;;;;;;12.23;5.20;;;24.00;98.90;;;;;;5033729;28;20507;-75
2022/10/28 11:08:39;;;;;;;14.30;5.20;;;23.80;99.20;;;;;;5032127;28;20493;-76
2022/10/28 11:11:13;;;;;;;7.20;4.37;;;24.00;99.10;;;;;;5027323;28;20475;-77
2022/10/28 11:13:41;;;;;;;13.33;5.13;;;24.20;98.50;;;;;;5035479;28;20542;-75
2022/10/28 11:16:18;;;;;;;10.23;6.03;;;24.40;98.40;;;;;;5028908;28;20514;-77
2022/10/28 11:18:48;;;;;;;11.03;3.97;;;24.30;98.20;;;;;;5032718;28;20528;-77
2022/10/28 11:21:30;;;;;;;14.10;5.47;;;24.10;98.40;;;;;;5034499;28;20439;-74
2022/10/28 11:24:12;;;;;;;12.23;4.20;;;24.00;98.60;;;;;;5033820;28;20539;-76
2022/10/28 11:26:44;;;;;;;11.97;4.43;;;23.70;99.00;;;;;;5017587;28;20953;-78
2022/10/28 11:29:14;;;;;;;12.97;3.53;;;23.60;99.40;;;;;;5033450;28;20532;-76
2022/10/28 11:32:10;;;;;;;8.27;4.60;;;23.40;99.80;;;;;;5033103;28;20500;-80
2022/10/28 11:35:03;;;;;;;9.50;5.03;;;23.50;99.90;;;;;;5009593;28;20597;-76
2022/10/28 11:37:45;;;;;;;13.13;4.67;;;23.80;99.90;;;;;;5037254;28;20441;-74
2022/10/28 11:40:26;;;;;;;15.03;5.37;;;24.00;99.60;;;;;;5039033;28;20867;-79
2022/10/28 11:43:07;;;;;;;10.20;4.90;;;24.20;99.10;;;;;;5029639;28;20446;-75
2022/10/28 11:45:42;;;;;;;9.80;4.80;;;24.20;98.50;;;;;;5025471;28;20507;-78
2022/10/28 11:48:22;;;;;;;13.87;4.70;;;24.00;98.40;;;;;;5032682;28;20562;-78
2022/10/28 11:50:59;;;;;;;8.13;3.43;;;24.00;98.80;;;;;;5025233;28;20485;-78
2022/10/28 11:54:01;;;;;;;10.17;4.40;;;23.90;98.70;;;;;;5013023;28;20466;-76
2022/10/28 11:56:35;;;;;;;13.77;4.83;;;24.00;98.80;;;;;;4931678;29;20473;-77
2022/10/28 11:59:26;;;;;;;9.23;4.97;;;24.00;98.90;;;;;;4996984;28;20549;-78
2022/10/28 12:02:00;;;;;;;16.47;4.43;;;23.80;98.80;;;;;;5026618;28;20613;-77
2022/10/28 12:04:43;;;;;;;11.63;4.07;;;23.80;99.10;;;;;;5011344;28;20821;-77
2022/10/28 12:07:41;;;;;;;8.30;4.07;;;23.70;99.00;;;;;;5012129;28;20538;-76
2022/10/28 12:10:32;;;;;;;19.57;5.90;;;23.60;99.20;;;;;;5020168;28;20876;-75
2022/10/28 12:13:07;;;;;;;18.67;5.90;;;23.50;99.40;;;;;;5025184;28;20463;-78
2022/10/28 12:15:48;;;;;;;12.93;4.13;;;23.50;99.90;;;;;;5010464;28;20453;-77
2022/10/28 12:18:22;;;;;;;21.50;4.40;;;23.30;99.90;;;;;;5007674;28;20459;-77
2022/10/28 12:20:58;;;;;;;11.90;5.50;;;23.30;99.90;;;;;;5019077;28;20457;-75
2022/10/28 12:23:29;;;;;;;7.73;3.93;;;23.30;99.90;;;;;;5024494;28;20452;-76
2022/10/28 12:25:58;;;;;;;9.83;5.20;;;23.30;99.90;;;;;;5031032;28;20545;-73
2022/10/28 12:28:29;;;;;;;18.97;4.30;;;23.20;99.90;;;;;;5030077;28;20532;-77
2022/10/28 12:30:58;;;;;;;9.70;4.20;;;23.00;99.90;;;;;;5025739;28;20558;-75
2022/10/28 12:33:30;;;;;;;15.83;5.47;;;22.90;99.90;;;;;;5035107;28;20525;-76
2022/10/28 12:36:16;;;;;;;8.97;4.70;;;22.70;99.90;;;;;;5022564;28;20892;-75
2022/10/28 12:38:54;;;;;;;15.83;5.27;;;22.90;99.90;;;;;;5030716;28;20556;-77
2022/10/28 12:41:24;;;;;;;9.40;6.33;;;23.00;99.90;;;;;;5026901;28;20451;-77
2022/10/28 12:43:55;;;;;;;12.30;4.90;;;23.00;99.90;;;;;;5037355;28;20518;-73
2022/10/28 12:46:28;;;;;;;13.00;5.10;;;23.10;99.90;;;;;;5037132;28;20454;-76
2022/10/28 12:48:58;;;;;;;14.07;5.33;;;23.30;99.90;;;;;;5010130;28;20974;-77
2022/10/28 12:51:37;;;;;;;12.33;4.27;;;23.40;99.90;;;;;;5029485;28;20442;-77
2022/10/28 12:54:16;;;;;;;9.97;4.73;;;23.50;99.90;;;;;;5031879;28;20448;-75
2022/10/28 12:56:51;;;;;;;12.20;5.30;;;23.50;99.90;;;;;;5032058;28;20542;-74
2022/10/28 12:59:24;;;;;;;9.33;4.57;;;23.50;99.90;;;;;;5023397;28;20471;-75
2022/10/28 13:01:52;;;;;;;14.00;4.50;;;23.50;99.90;;;;;;5039161;28;20507;-75